createdAt,value
2023-04-23T00:01:44.893Z,11.15
2023-04-23T00:04:12.220Z,8.75
2023-04-23T00:06:39.686Z,9.05
2023-04-23T00:09:06.979Z,12.98
2023-04-23T00:11:33.692Z,13.05
2023-04-23T00:14:00.308Z,10.73
2023-04-23T00:16:26.936Z,9.55
2023-04-23T00:18:53.445Z,11.98
2023-04-23T00:21:20.019Z,11.18
2023-04-23T00:23:46.554Z,11.70
2023-04-23T00:26:13.055Z,12.23
2023-04-23T00:28:40.744Z,10.02
2023-04-23T00:31:07.781Z,10.07
2023-04-23T00:33:34.433Z,23.30
2023-04-23T00:36:01.106Z,9.32
2023-04-23T00:38:27.905Z,14.43
2023-04-23T00:40:54.434Z,14.20
2023-04-23T00:43:21.057Z,11.77
2023-04-23T00:45:47.972Z,11.88
2023-04-23T00:48:14.828Z,9.88
2023-04-23T00:50:41.872Z,10.00
2023-04-23T00:53:08.826Z,12.60
2023-04-23T00:55:35.604Z,9.45
2023-04-23T00:58:02.587Z,13.48
2023-04-23T01:00:29.529Z,9.68
2023-04-23T01:02:58.530Z,12.88
2023-04-23T01:05:25.640Z,12.40
2023-04-23T01:07:52.183Z,14.60
2023-04-23T01:10:19.227Z,11.85
2023-04-23T01:12:46.469Z,12.38
2023-04-23T01:15:12.976Z,11.43
2023-04-23T01:17:39.867Z,11.73
2023-04-23T01:20:06.966Z,13.55
2023-04-23T01:22:37.240Z,9.35
2023-04-23T01:25:04.541Z,11.32
2023-04-23T01:27:31.769Z,14.32
2023-04-23T01:29:58.867Z,12.05
2023-04-23T01:32:26.234Z,14.57
2023-04-23T01:34:55.078Z,14.18
2023-04-23T01:37:21.752Z,11.70
2023-04-23T01:39:48.271Z,11.30
2023-04-23T01:42:14.765Z,12.00
2023-04-23T01:44:42.687Z,13.02
2023-04-23T01:47:09.438Z,12.70
2023-04-23T01:49:36.010Z,12.35
2023-04-23T01:52:02.602Z,12.52
2023-04-23T01:54:29.127Z,13.52
2023-04-23T01:56:55.887Z,13.80
2023-04-23T01:59:22.954Z,14.20
2023-04-23T02:01:49.814Z,14.80
2023-04-23T02:04:17.832Z,17.10
2023-04-23T02:06:47.501Z,15.48
2023-04-23T02:09:14.412Z,12.98
2023-04-23T02:11:41.184Z,12.70
2023-04-23T02:14:08.305Z,13.55
2023-04-23T02:16:35.124Z,13.00
2023-04-23T02:19:01.981Z,16.58
2023-04-23T02:21:28.694Z,15.32
2023-04-23T02:23:55.405Z,16.90
2023-04-23T02:26:22.841Z,16.95
2023-04-23T02:28:49.662Z,17.40
2023-04-23T02:31:16.685Z,15.48
2023-04-23T02:33:43.634Z,18.92
2023-04-23T02:36:13.003Z,15.45
2023-04-23T02:38:44.680Z,17.27
2023-04-23T02:41:12.046Z,17.23
2023-04-23T02:43:38.588Z,13.98
2023-04-23T02:46:12.157Z,15.50
2023-04-23T02:48:40.801Z,16.27
2023-04-23T02:51:09.792Z,16.75
2023-04-23T02:53:36.476Z,16.60
2023-04-23T02:56:03.098Z,15.93
2023-04-23T02:58:31.012Z,15.98
2023-04-23T03:01:00.291Z,16.70
2023-04-23T03:03:31.855Z,15.13
2023-04-23T03:06:00.678Z,15.88
2023-04-23T03:08:27.711Z,15.40
2023-04-23T03:10:54.315Z,16.00
2023-04-23T03:13:21.123Z,14.18
2023-04-23T03:15:48.140Z,13.35
2023-04-23T03:18:14.672Z,13.98
2023-04-23T03:20:41.248Z,13.52
2023-04-23T03:23:07.822Z,16.23
2023-04-23T03:25:34.478Z,14.10
2023-04-23T03:28:01.071Z,13.30
2023-04-23T03:30:29.217Z,14.43
2023-04-23T03:32:56.991Z,12.68
2023-04-23T03:35:24.590Z,13.65
2023-04-23T03:37:52.318Z,16.08
2023-04-23T03:40:19.551Z,13.05
2023-04-23T03:42:48.794Z,13.10
2023-04-23T03:45:17.734Z,12.48
2023-04-23T03:47:44.642Z,12.65
2023-04-23T03:50:13.294Z,11.77
2023-04-23T03:52:41.211Z,13.57
2023-04-23T03:55:13.176Z,13.15
2023-04-23T03:57:43.442Z,14.15
2023-04-23T04:00:19.572Z,15.43
2023-04-23T04:02:46.365Z,14.27
2023-04-23T04:05:13.273Z,13.45
2023-04-23T04:07:40.650Z,14.00
2023-04-23T04:10:07.855Z,13.32
2023-04-23T04:12:34.586Z,14.15
2023-04-23T04:15:02.972Z,13.20
2023-04-23T04:17:32.057Z,14.18
2023-04-23T04:19:58.611Z,16.48
2023-04-23T04:22:28.047Z,14.88
2023-04-23T04:24:54.724Z,14.90
2023-04-23T04:27:21.357Z,13.98
2023-04-23T04:29:48.736Z,13.27
2023-04-23T04:32:15.386Z,15.70
2023-04-23T04:34:44.937Z,14.27
2023-04-23T04:37:11.629Z,13.63
2023-04-23T04:39:40.686Z,17.92
2023-04-23T04:42:15.691Z,15.43
2023-04-23T04:44:44.048Z,14.50
2023-04-23T04:47:10.734Z,13.50
2023-04-23T04:49:40.168Z,12.40
2023-04-23T04:52:09.397Z,12.45
2023-04-23T04:54:35.920Z,12.40
2023-04-23T04:57:02.686Z,13.73
2023-04-23T04:59:29.248Z,11.88
2023-04-23T05:01:56.758Z,12.18
2023-04-23T05:04:26.539Z,11.45
2023-04-23T05:06:54.237Z,12.85
2023-04-23T05:09:20.870Z,12.82
2023-04-23T05:11:47.397Z,12.02
2023-04-23T05:14:19.079Z,11.75
2023-04-23T05:16:45.645Z,13.98
2023-04-23T05:19:12.257Z,12.63
2023-04-23T05:21:38.795Z,12.15
2023-04-23T05:24:33.113Z,11.30
2023-04-23T05:26:59.683Z,11.20
2023-04-23T05:29:26.770Z,13.82
2023-04-23T05:31:53.328Z,12.93
2023-04-23T05:34:19.962Z,12.13
2023-04-23T05:36:46.706Z,12.40
2023-04-23T05:39:13.248Z,13.90
2023-04-23T05:41:39.821Z,12.98
2023-04-23T05:44:06.387Z,12.50
2023-04-23T05:46:32.975Z,13.20
2023-04-23T05:48:59.543Z,13.18
2023-04-23T05:51:26.088Z,14.23
2023-04-23T05:53:52.626Z,13.25
2023-04-23T05:56:19.163Z,11.98
2023-04-23T05:58:46.326Z,13.02
2023-04-23T06:01:12.882Z,14.63
2023-04-23T06:03:42.078Z,12.98
2023-04-23T06:06:08.754Z,12.35
2023-04-23T06:08:35.336Z,11.95
2023-04-23T06:11:12.454Z,12.52
2023-04-23T06:13:43.495Z,12.30
2023-04-23T06:16:10.405Z,12.05
2023-04-23T06:18:37.835Z,12.00
2023-04-23T06:21:04.581Z,13.00
2023-04-23T06:23:31.730Z,12.57
2023-04-23T06:25:58.606Z,12.05
2023-04-23T06:28:25.248Z,12.90
2023-04-23T06:31:14.602Z,11.88
2023-04-23T06:33:41.751Z,13.75
2023-04-23T06:36:10.954Z,13.05
2023-04-23T06:38:38.064Z,15.20
2023-04-23T06:41:04.819Z,11.45
2023-04-23T06:43:31.531Z,13.13
2023-04-23T06:46:16.678Z,10.20
2023-04-23T06:48:43.225Z,11.82
2023-04-23T06:51:09.812Z,10.68
2023-04-23T06:53:37.525Z,11.32
2023-04-23T06:56:04.719Z,10.23
2023-04-23T06:58:32.231Z,10.00
2023-04-23T07:01:04.318Z,12.43
2023-04-23T07:03:33.473Z,10.10
2023-04-23T07:06:00.014Z,9.98
2023-04-23T07:08:27.061Z,9.95
2023-04-23T07:10:53.725Z,12.93
2023-04-23T07:13:20.234Z,12.52
2023-04-23T07:15:49.417Z,9.88
2023-04-23T07:18:16.014Z,9.80
2023-04-23T07:20:42.551Z,12.32
2023-04-23T07:23:09.093Z,10.38
2023-04-23T07:25:35.816Z,10.65
2023-04-23T07:28:02.447Z,9.93
2023-04-23T07:30:29.001Z,10.50
2023-04-23T07:32:55.742Z,10.63
2023-04-23T07:35:22.638Z,10.52
2023-04-23T07:37:53.720Z,10.73
2023-04-23T07:42:51.350Z,10.70
2023-04-23T07:45:18.719Z,12.63
2023-04-23T07:47:46.690Z,12.73
2023-04-23T07:50:13.936Z,12.57
2023-04-23T07:52:40.473Z,12.93
2023-04-23T07:55:07.706Z,12.80
2023-04-23T07:57:34.207Z,11.63
2023-04-23T08:00:00.957Z,11.00
2023-04-23T08:02:28.466Z,13.93
2023-04-23T08:04:55.502Z,12.38
2023-04-23T08:07:22.264Z,11.95
2023-04-23T08:09:49.068Z,14.73
2023-04-23T08:12:17.412Z,13.00
2023-04-23T08:14:44.491Z,11.80
2023-04-23T08:17:14.429Z,13.77
2023-04-23T08:19:41.160Z,12.90
2023-04-23T08:22:07.946Z,11.80
2023-04-23T08:24:34.473Z,12.85
2023-04-23T08:27:01.794Z,11.27
2023-04-23T08:29:28.304Z,11.43
2023-04-23T08:31:55.093Z,10.70
2023-04-23T08:34:21.669Z,10.45
2023-04-23T08:36:49.479Z,12.35
2023-04-23T08:39:16.001Z,10.25
2023-04-23T08:41:44.005Z,8.68
2023-04-23T08:44:14.109Z,10.75
2023-04-23T08:46:48.453Z,10.02
2023-04-23T08:49:16.680Z,10.00
2023-04-23T08:51:48.778Z,11.38
2023-04-23T08:54:27.073Z,9.50
2023-04-23T08:56:57.407Z,10.40
2023-04-23T08:59:25.973Z,11.07
2023-04-23T09:01:53.754Z,10.18
2023-04-23T09:04:20.600Z,9.57
2023-04-23T09:06:47.170Z,9.23
2023-04-23T09:09:18.014Z,11.77
2023-04-23T09:11:44.809Z,9.23
2023-04-23T09:14:12.761Z,10.18
2023-04-23T09:16:42.572Z,28.10
2023-04-23T09:19:10.365Z,8.52
2023-04-23T09:21:39.347Z,7.15
2023-04-23T09:24:06.279Z,6.68
2023-04-23T09:26:33.052Z,6.35
2023-04-23T09:28:59.576Z,6.57
2023-04-23T09:31:26.230Z,5.95
2023-04-23T09:33:53.907Z,5.32
2023-04-23T09:36:22.819Z,6.28
2023-04-23T09:38:50.501Z,4.65
2023-04-23T09:41:23.884Z,4.95
2023-04-23T09:43:50.459Z,4.72
2023-04-23T09:46:17.033Z,5.65
2023-04-23T09:48:43.705Z,5.68
2023-04-23T09:51:14.040Z,5.72
2023-04-23T09:53:44.216Z,6.75
2023-04-23T09:56:10.756Z,7.05
2023-04-23T09:58:37.881Z,6.60
2023-04-23T10:01:08.680Z,6.75
2023-04-23T10:03:35.508Z,8.02
2023-04-23T10:06:03.273Z,9.23
2023-04-23T10:08:31.928Z,7.90
2023-04-23T10:11:10.017Z,9.48
2023-04-23T10:13:54.989Z,10.02
2023-04-23T10:16:25.526Z,13.90
2023-04-23T10:18:59.718Z,14.02
2023-04-23T10:21:39.461Z,15.05
2023-04-23T10:24:13.737Z,16.42
2023-04-23T10:26:42.484Z,15.85
2023-04-23T10:29:15.312Z,16.80
2023-04-23T10:31:42.847Z,16.25
2023-04-23T10:34:12.590Z,15.88
2023-04-23T10:36:39.165Z,14.93
2023-04-23T10:39:09.366Z,16.00
2023-04-23T10:41:38.025Z,15.27
2023-04-23T10:44:05.897Z,16.30
2023-04-23T10:46:33.399Z,16.17
2023-04-23T10:49:07.236Z,17.05
2023-04-23T10:52:14.632Z,15.68
2023-04-23T10:54:21.674Z,16.33
2023-04-23T10:56:58.795Z,14.63
2023-04-23T10:59:25.617Z,13.00
2023-04-23T11:01:52.737Z,14.27
2023-04-23T11:04:29.540Z,12.98
2023-04-23T11:06:58.293Z,13.63
2023-04-23T11:09:38.475Z,14.00
2023-04-23T11:12:32.785Z,13.10
2023-04-23T11:15:00.260Z,13.60
2023-04-23T11:17:32.874Z,14.50
2023-04-23T11:20:16.364Z,14.20
2023-04-23T11:22:44.502Z,13.32
2023-04-23T11:25:12.871Z,12.65
2023-04-23T11:27:43.480Z,14.80
2023-04-23T11:30:13.987Z,13.15
2023-04-23T11:32:42.205Z,14.32
2023-04-23T11:35:11.400Z,12.88
2023-04-23T11:37:45.416Z,13.87
2023-04-23T11:40:14.285Z,13.20
2023-04-23T11:42:43.384Z,11.80
2023-04-23T11:45:15.852Z,10.40
2023-04-23T11:47:43.173Z,8.55
2023-04-23T11:50:10.064Z,9.05
2023-04-23T11:52:37.862Z,5.68
2023-04-23T11:55:07.318Z,5.28
2023-04-23T11:57:41.662Z,4.15
2023-04-23T12:00:19.274Z,5.10
2023-04-23T12:02:58.745Z,3.67
2023-04-23T12:05:35.191Z,3.50
2023-04-23T12:08:21.233Z,5.88
2023-04-23T12:10:49.573Z,4.53
2023-04-23T12:13:21.721Z,3.88
2023-04-23T12:15:53.576Z,2.90
2023-04-23T12:18:20.245Z,3.15
2023-04-23T12:20:46.805Z,2.90
2023-04-23T12:23:13.349Z,3.17
2023-04-23T12:25:40.604Z,2.80
2023-04-23T12:28:07.328Z,5.10
2023-04-23T12:30:35.443Z,3.38
2023-04-23T12:33:02.526Z,2.90
2023-04-23T12:35:54.398Z,2.50
2023-04-23T12:38:26.052Z,3.75
2023-04-23T12:40:54.364Z,3.28
2023-04-23T12:43:21.413Z,2.35
2023-04-23T12:45:48.057Z,2.67
2023-04-23T12:48:14.592Z,3.22
2023-04-23T12:50:50.667Z,4.00
2023-04-23T12:53:18.211Z,4.55
2023-04-23T12:55:45.747Z,2.80
2023-04-23T12:58:12.460Z,3.00
2023-04-23T13:00:39.057Z,4.60
2023-04-23T13:03:05.686Z,2.90
2023-04-23T13:05:32.295Z,4.53
2023-04-23T13:08:00.985Z,2.83
2023-04-23T13:10:27.824Z,6.30
2023-04-23T13:12:54.359Z,3.55
2023-04-23T13:15:20.867Z,2.88
2023-04-23T13:17:47.433Z,3.28
2023-04-23T13:20:13.965Z,3.83
2023-04-23T13:22:40.724Z,9.00
2023-04-23T13:25:07.406Z,3.80
2023-04-23T13:27:33.941Z,3.22
2023-04-23T13:30:01.480Z,3.67
2023-04-23T13:32:31.981Z,3.40
2023-04-23T13:37:31.411Z,3.60
2023-04-23T13:39:58.007Z,3.38
2023-04-23T13:42:24.602Z,3.30
2023-04-23T13:44:51.238Z,5.35
2023-04-23T13:47:17.914Z,4.50
2023-04-23T13:49:44.557Z,3.13
2023-04-23T13:52:11.184Z,3.38
2023-04-23T13:54:38.205Z,3.65
2023-04-23T13:57:04.762Z,2.85
2023-04-23T13:59:31.269Z,4.13
2023-04-23T14:01:58.044Z,5.15
2023-04-23T14:04:24.810Z,2.72
2023-04-23T14:06:51.423Z,4.70
2023-04-23T14:09:18.955Z,3.92
2023-04-23T14:11:45.511Z,3.65
2023-04-23T14:14:12.154Z,3.63
2023-04-23T14:16:38.958Z,3.63
2023-04-23T14:19:05.501Z,3.53
2023-04-23T14:21:32.039Z,3.25
2023-04-23T14:24:08.332Z,4.53
2023-04-23T14:29:32.755Z,3.88
2023-04-23T14:31:59.401Z,5.78
2023-04-23T14:34:27.109Z,3.28
2023-04-23T14:36:54.288Z,7.53
2023-04-23T14:39:25.819Z,3.22
2023-04-23T14:41:52.733Z,3.88
2023-04-23T14:44:19.296Z,3.47
2023-04-23T14:46:45.922Z,5.28
2023-04-23T14:49:12.481Z,4.15
2023-04-23T14:51:39.024Z,3.25
2023-04-23T14:54:05.712Z,4.22
2023-04-23T14:56:32.221Z,1.85
2023-04-23T14:58:58.826Z,2.83
2023-04-23T15:01:25.399Z,3.08
2023-04-23T15:03:53.201Z,2.90
2023-04-23T15:06:19.872Z,7.80
2023-04-23T15:08:46.429Z,2.95
2023-04-23T15:11:13.551Z,3.85
2023-04-23T15:13:50.366Z,2.45
2023-04-23T15:16:26.286Z,3.25
2023-04-23T15:19:04.244Z,2.55
2023-04-23T15:21:30.770Z,3.38
2023-04-23T15:23:57.490Z,3.13
2023-04-23T15:26:25.587Z,3.90
2023-04-23T15:28:52.080Z,2.97
2023-04-23T15:31:18.608Z,1.90
2023-04-23T15:33:45.191Z,2.60
2023-04-23T15:36:11.805Z,2.33
2023-04-23T15:38:38.301Z,3.22
2023-04-23T15:41:05.493Z,2.17
2023-04-23T15:43:32.023Z,3.33
2023-04-23T15:46:00.751Z,2.40
2023-04-23T15:48:27.832Z,2.97
2023-04-23T15:50:54.436Z,6.60
2023-04-23T15:53:22.824Z,3.45
2023-04-23T15:55:51.245Z,1.88
2023-04-23T15:58:21.103Z,1.65
2023-04-23T16:00:47.684Z,3.10
2023-04-23T16:03:15.238Z,2.30
2023-04-23T16:05:42.515Z,3.42
2023-04-23T16:08:09.865Z,2.35
2023-04-23T16:10:38.095Z,2.65
2023-04-23T16:13:04.622Z,2.60
2023-04-23T16:15:31.157Z,2.42
2023-04-23T16:17:59.859Z,3.10
2023-04-23T16:20:27.926Z,2.55
2023-04-23T16:22:54.976Z,11.43
2023-04-23T16:25:21.571Z,3.40
2023-04-23T16:27:48.559Z,1.92
2023-04-23T16:30:15.692Z,1.98
2023-04-23T16:32:42.215Z,4.30
2023-04-23T16:35:09.102Z,2.58
2023-04-23T16:37:35.834Z,2.78
2023-04-23T16:40:02.392Z,2.60
2023-04-23T16:42:28.927Z,3.67
2023-04-23T16:44:55.439Z,2.72
2023-04-23T16:47:21.981Z,3.33
2023-04-23T16:49:48.533Z,2.55
2023-04-23T16:52:15.138Z,2.47
2023-04-23T16:54:41.791Z,2.50
2023-04-23T16:57:08.529Z,2.28
2023-04-23T16:59:35.080Z,2.40
2023-04-23T17:02:01.648Z,3.00
2023-04-23T17:04:28.241Z,4.25
2023-04-23T17:06:54.898Z,2.83
2023-04-23T17:09:21.469Z,4.13
2023-04-23T17:11:47.982Z,2.58
2023-04-23T17:14:14.578Z,3.97
2023-04-23T17:16:41.722Z,2.95
2023-04-23T17:19:08.397Z,2.88
2023-04-23T17:21:35.003Z,3.65
2023-04-23T17:24:01.797Z,4.38
2023-04-23T17:26:28.297Z,2.63
2023-04-23T17:28:54.899Z,3.13
2023-04-23T17:31:21.682Z,2.78
2023-04-23T17:33:49.566Z,2.35
2023-04-23T17:36:17.169Z,4.72
2023-04-23T17:38:43.783Z,4.93
2023-04-23T17:41:10.376Z,2.60
2023-04-23T17:43:37.078Z,3.05
2023-04-23T17:46:03.790Z,3.08
2023-04-23T17:48:30.494Z,3.55
2023-04-23T17:50:57.091Z,2.92
2023-04-23T17:53:23.637Z,2.38
2023-04-23T17:55:50.136Z,2.97
2023-04-23T17:58:16.766Z,3.08
2023-04-23T18:00:43.465Z,2.83
2023-04-23T18:03:11.740Z,4.07
2023-04-23T18:05:38.493Z,2.83
2023-04-23T18:08:06.899Z,4.20
2023-04-23T18:10:33.578Z,2.65
2023-04-23T18:13:03.460Z,4.90
2023-04-23T18:15:32.303Z,3.55
2023-04-23T18:17:59.119Z,3.92
2023-04-23T18:20:26.600Z,3.45
2023-04-23T18:22:56.316Z,3.08
2023-04-23T18:25:25.058Z,4.25
2023-04-23T18:27:52.141Z,2.85
2023-04-23T18:30:25.574Z,4.03
2023-04-23T18:33:03.825Z,4.25
2023-04-23T18:35:31.544Z,4.63
2023-04-23T18:38:08.557Z,5.07
2023-04-23T18:40:35.528Z,6.25
2023-04-23T18:43:02.693Z,4.88
2023-04-23T18:45:32.360Z,3.63
2023-04-23T18:48:04.617Z,4.03
2023-04-23T18:50:51.508Z,3.85
2023-04-23T18:53:19.089Z,4.68
2023-04-23T18:55:46.902Z,3.95
2023-04-23T18:58:13.414Z,5.63
2023-04-23T19:00:39.980Z,6.40
2023-04-23T19:03:15.475Z,4.70
2023-04-23T19:05:50.766Z,5.28
2023-04-23T19:08:17.262Z,8.35
2023-04-23T19:10:44.083Z,6.63
2023-04-23T19:13:10.733Z,4.43
2023-04-23T19:15:37.310Z,6.80
2023-04-23T19:18:06.092Z,5.88
2023-04-23T19:20:32.675Z,5.35
2023-04-23T19:22:59.183Z,7.40
2023-04-23T19:25:25.730Z,5.63
2023-04-23T19:27:52.262Z,6.88
2023-04-23T19:30:18.845Z,4.50
2023-04-23T19:32:45.468Z,5.07
2023-04-23T19:35:12.164Z,5.50
2023-04-23T19:37:38.719Z,4.50
2023-04-23T19:40:05.740Z,7.50
2023-04-23T19:42:32.665Z,8.13
2023-04-23T19:44:59.148Z,6.78
2023-04-23T19:47:25.753Z,6.47
2023-04-23T19:49:52.509Z,5.90
2023-04-23T19:52:21.918Z,5.90
2023-04-23T19:54:51.408Z,6.70
2023-04-23T19:57:19.316Z,5.93
2023-04-23T19:59:46.268Z,6.30
2023-04-23T20:02:13.025Z,6.32
2023-04-23T20:04:39.842Z,6.30
2023-04-23T20:07:06.948Z,6.35
2023-04-23T20:09:34.006Z,5.78
2023-04-23T20:12:01.496Z,7.72
2023-04-23T20:14:28.028Z,7.50
2023-04-23T20:16:54.665Z,7.20
2023-04-23T20:19:21.617Z,6.43
2023-04-23T20:21:48.160Z,8.50
2023-04-23T20:24:14.965Z,7.63
2023-04-23T20:26:42.180Z,6.65
2023-04-23T20:29:08.820Z,7.90
2023-04-23T20:31:35.473Z,8.70
2023-04-23T20:34:02.360Z,6.55
2023-04-23T20:36:33.191Z,6.43
2023-04-23T20:39:03.271Z,6.22
2023-04-23T20:41:32.405Z,7.93
2023-04-23T20:43:59.303Z,8.02
2023-04-23T20:46:26.477Z,8.05
2023-04-23T20:48:53.834Z,8.18
2023-04-23T20:51:20.495Z,7.50
2023-04-23T20:53:47.341Z,7.47
2023-04-23T20:56:14.054Z,8.30
2023-04-23T20:58:41.153Z,7.57
2023-04-23T21:01:08.267Z,6.53
2023-04-23T21:03:36.995Z,8.20
2023-04-23T21:06:04.868Z,6.20
2023-04-23T21:08:31.476Z,6.78
2023-04-23T21:10:58.460Z,6.05
2023-04-23T21:13:25.042Z,6.38
2023-04-23T21:15:51.954Z,6.18
2023-04-23T21:18:19.146Z,6.13
2023-04-23T21:20:48.235Z,8.05
2023-04-23T21:23:14.785Z,5.63
2023-04-23T21:25:41.400Z,5.53
2023-04-23T21:28:07.927Z,8.38
2023-04-23T21:30:44.375Z,6.63
2023-04-23T21:33:11.045Z,6.50
2023-04-23T21:35:37.615Z,7.45
2023-04-23T21:38:04.158Z,7.20
2023-04-23T21:40:30.979Z,7.65
2023-04-23T21:42:57.510Z,6.95
2023-04-23T21:45:24.201Z,8.10
2023-04-23T21:47:51.068Z,6.28
2023-04-23T21:50:17.670Z,5.78
2023-04-23T21:52:44.237Z,7.05
2023-04-23T21:55:12.272Z,6.45
2023-04-23T21:57:39.163Z,8.00
2023-04-23T22:00:06.912Z,6.65
2023-04-23T22:02:48.881Z,5.90
2023-04-23T22:05:17.131Z,7.30
2023-04-23T22:07:44.636Z,5.70
2023-04-23T22:10:12.607Z,5.75
2023-04-23T22:12:41.090Z,5.45
2023-04-23T22:15:09.875Z,6.63
2023-04-23T22:17:38.437Z,5.72
2023-04-23T22:20:06.822Z,5.70
2023-04-23T22:22:36.788Z,7.10
2023-04-23T22:25:06.355Z,6.60
2023-04-23T22:27:34.848Z,5.88
2023-04-23T22:30:01.576Z,5.50
2023-04-23T22:32:28.213Z,6.05
2023-04-23T22:34:54.901Z,5.78
2023-04-23T22:37:21.620Z,7.55
2023-04-23T22:39:48.142Z,6.30
2023-04-23T22:42:16.144Z,6.30
2023-04-23T22:44:43.202Z,6.13
2023-04-23T22:47:10.189Z,6.00
2023-04-23T22:49:36.729Z,7.18
2023-04-23T22:52:03.279Z,7.00
2023-04-23T22:54:29.968Z,6.47
2023-04-23T22:56:56.496Z,8.30
2023-04-23T22:59:23.266Z,5.45
2023-04-23T23:01:49.799Z,5.30
2023-04-23T23:04:16.369Z,5.53
2023-04-23T23:06:43.269Z,5.65
2023-04-23T23:09:10.430Z,7.28
2023-04-23T23:11:37.112Z,5.43
2023-04-23T23:14:04.363Z,6.03
2023-04-23T23:16:30.903Z,6.40
2023-04-23T23:18:57.920Z,8.63
2023-04-23T23:21:24.795Z,7.13
2023-04-23T23:23:51.473Z,6.70
2023-04-23T23:26:18.138Z,6.68
2023-04-23T23:28:44.677Z,8.20
2023-04-23T23:31:11.376Z,6.57
2023-04-23T23:33:39.572Z,6.97
2023-04-23T23:36:08.315Z,5.65
2023-04-23T23:38:34.843Z,5.82
2023-04-23T23:41:01.445Z,6.40
2023-04-23T23:43:27.996Z,7.72
2023-04-23T23:45:54.488Z,6.22
2023-04-23T23:48:21.057Z,6.18
2023-04-23T23:50:47.568Z,6.00
2023-04-23T23:53:14.119Z,6.22
2023-04-23T23:55:40.792Z,5.97
2023-04-23T23:58:07.346Z,6.18
